createdAt,value
2019-03-12T00:00:09.127Z,100646.77
2019-03-12T00:02:38.340Z,100638.07
2019-03-12T00:05:07.580Z,100645.11
2019-03-12T00:07:36.849Z,100648.05
2019-03-12T00:10:06.464Z,100648.69
2019-03-12T00:12:35.689Z,100653.68
2019-03-12T00:15:05.419Z,100656.36
2019-03-12T00:17:34.637Z,100653.42
2019-03-12T00:20:03.880Z,100662.38
2019-03-12T00:22:33.341Z,100661.86
2019-03-12T00:25:02.600Z,100668.64
2019-03-12T00:27:31.873Z,100676.95
2019-03-12T00:30:01.154Z,100670.67
2019-03-12T00:32:30.517Z,100677.58
2019-03-12T00:34:59.879Z,100680.63
2019-03-12T00:37:29.187Z,100687.66
2019-03-12T00:39:58.454Z,100683.69
2019-03-12T00:42:27.759Z,100683.43
2019-03-12T00:44:57.087Z,100684.06
2019-03-12T00:47:26.628Z,100693.65
2019-03-12T00:49:55.868Z,100695.18
2019-03-12T00:52:25.182Z,100696.33
2019-03-12T00:54:54.522Z,100700.41
2019-03-12T00:57:23.745Z,100701.94
2019-03-12T00:59:56.178Z,100704.61
2019-03-12T01:02:23.956Z,100704.48
2019-03-12T01:04:53.147Z,100709.33
2019-03-12T01:07:22.426Z,100708.92
2019-03-12T01:09:51.616Z,100710.97
2019-03-12T01:12:20.829Z,100710.06
2019-03-12T01:14:50.121Z,100714.16
2019-03-12T01:17:19.484Z,100712.88
2019-03-12T01:19:48.671Z,100714.78
2019-03-12T01:22:18.042Z,100720.66
2019-03-12T01:24:47.240Z,100719.24
2019-03-12T01:27:16.479Z,100728.05
2019-03-12T01:29:47.472Z,100726.16
2019-03-12T01:32:16.670Z,100728.58
2019-03-12T01:34:45.860Z,100733.17
2019-03-12T01:37:15.095Z,100725.23
2019-03-12T01:39:44.300Z,100729.19
2019-03-12T01:42:13.516Z,100732.36
2019-03-12T01:44:42.873Z,100738.62
2019-03-12T01:47:12.072Z,100604.78
2019-03-12T01:49:41.782Z,100741.80
2019-03-12T01:52:11.067Z,100737.45
2019-03-12T01:54:40.335Z,100746.25
2019-03-12T01:57:09.533Z,100743.56
2019-03-12T01:59:38.780Z,100751.85
2019-03-12T02:02:08.028Z,100754.79
2019-03-12T02:04:37.188Z,100756.69
2019-03-12T02:07:06.441Z,100762.94
2019-03-12T02:09:35.642Z,100762.66
2019-03-12T02:12:04.847Z,100757.52
2019-03-12T02:14:34.104Z,100768.87
2019-03-12T02:17:03.309Z,100769.12
2019-03-12T02:19:33.024Z,100775.37
2019-03-12T02:22:02.249Z,100781.23
2019-03-12T02:24:31.431Z,100775.84
2019-03-12T02:27:00.657Z,100773.67
2019-03-12T02:29:29.892Z,100783.38
2019-03-12T02:31:59.205Z,100780.54
2019-03-12T02:34:28.406Z,100787.41
2019-03-12T02:36:57.649Z,100789.82
2019-03-12T02:39:26.860Z,100789.78
2019-03-12T02:41:56.102Z,100792.58
2019-03-12T02:44:25.327Z,100801.23
2019-03-12T02:46:54.562Z,100800.56
2019-03-12T02:49:23.747Z,100792.14
2019-03-12T02:51:53.108Z,100792.10
2019-03-12T02:54:22.358Z,100798.30
2019-03-12T02:56:51.623Z,100806.19
2019-03-12T02:59:20.842Z,100806.42
2019-03-12T03:01:50.054Z,100806.80
2019-03-12T03:04:19.300Z,100805.91
2019-03-12T03:07:05.945Z,100799.77
2019-03-12T03:09:35.181Z,100810.87
2019-03-12T03:12:04.397Z,100815.45
2019-03-12T03:14:38.573Z,100816.45
2019-03-12T03:17:10.240Z,100816.77
2019-03-12T03:19:39.671Z,100823.16
2019-03-12T03:22:09.198Z,100825.33
2019-03-12T03:24:38.390Z,100819.04
2019-03-12T03:27:07.575Z,100830.14
2019-03-12T03:29:37.095Z,100835.10
2019-03-12T03:32:06.343Z,100835.72
2019-03-12T03:34:35.592Z,100840.53
2019-03-12T03:37:05.028Z,100844.06
2019-03-12T03:39:34.269Z,100845.05
2019-03-12T03:42:03.462Z,100849.34
2019-03-12T03:44:32.738Z,100850.71
2019-03-12T03:47:02.016Z,100854.77
2019-03-12T03:49:31.235Z,100858.68
2019-03-12T03:52:00.575Z,100861.46
2019-03-12T03:54:29.912Z,100860.19
2019-03-12T03:56:59.114Z,100866.56
2019-03-12T03:59:28.388Z,100867.92
2019-03-12T04:01:57.610Z,100868.91
2019-03-12T04:04:26.845Z,100882.41
2019-03-12T04:06:56.087Z,100880.09
2019-03-12T04:09:25.277Z,100880.31
2019-03-12T04:11:54.468Z,100882.20
2019-03-12T04:14:23.762Z,100893.15
2019-03-12T04:16:52.959Z,100893.52
2019-03-12T04:19:22.245Z,100892.25
2019-03-12T04:21:51.676Z,100897.58
2019-03-12T04:24:20.874Z,100891.95
2019-03-12T04:26:52.127Z,100891.81
2019-03-12T04:29:21.348Z,100899.53
2019-03-12T04:31:50.548Z,100897.97
2019-03-12T04:34:25.965Z,100901.12
2019-03-12T04:36:55.280Z,100902.02
2019-03-12T04:39:24.613Z,100907.86
2019-03-12T04:41:53.843Z,100914.09
2019-03-12T04:44:23.133Z,100915.44
2019-03-12T04:46:52.443Z,100914.25
2019-03-12T04:49:21.702Z,100912.00
2019-03-12T04:51:51.027Z,100918.37
2019-03-12T04:54:20.310Z,100907.66
2019-03-12T04:56:49.647Z,100910.42
2019-03-12T04:59:18.841Z,100905.03
2019-03-12T05:01:48.024Z,100905.93
2019-03-12T05:04:17.252Z,100905.93
2019-03-12T05:06:46.435Z,100908.70
2019-03-12T05:09:15.937Z,100905.33
2019-03-12T05:11:45.154Z,100913.58
2019-03-12T05:14:32.860Z,100920.69
2019-03-12T05:17:13.831Z,100918.14
2019-03-12T05:19:44.475Z,100923.61
2019-03-12T05:22:14.189Z,100930.58
2019-03-12T05:24:43.496Z,100934.63
2019-03-12T05:27:12.716Z,100939.20
2019-03-12T05:29:41.999Z,100945.04
2019-03-12T05:32:11.273Z,100954.48
2019-03-12T05:34:40.591Z,100950.66
2019-03-12T05:37:09.803Z,100946.31
2019-03-12T05:39:39.036Z,100948.86
2019-03-12T05:42:08.221Z,100959.13
2019-03-12T05:44:37.416Z,100962.05
2019-03-12T05:47:08.130Z,100963.54
2019-03-12T05:49:37.676Z,100956.49
2019-03-12T05:52:06.923Z,100951.39
2019-03-12T05:54:36.197Z,100953.79
2019-03-12T05:57:05.650Z,100958.52
2019-03-12T05:59:34.861Z,100965.78
2019-03-12T06:02:04.112Z,100964.36
2019-03-12T06:04:34.690Z,100964.27
2019-03-12T06:07:03.901Z,100965.33
2019-03-12T06:09:33.167Z,100968.70
2019-03-12T06:12:02.438Z,100970.44
2019-03-12T06:14:31.638Z,100972.76
2019-03-12T06:17:00.851Z,100957.62
2019-03-12T06:19:30.111Z,100960.11
2019-03-12T06:21:59.297Z,100967.61
2019-03-12T06:24:28.816Z,100974.28
2019-03-12T06:26:58.013Z,100979.68
2019-03-12T06:29:27.243Z,100979.77
2019-03-12T06:32:16.754Z,100981.56
2019-03-12T06:35:00.872Z,100982.77
2019-03-12T06:37:51.986Z,100981.34
2019-03-12T06:40:38.890Z,100983.37
2019-03-12T06:43:29.920Z,100982.39
2019-03-12T06:46:16.916Z,100976.84
2019-03-12T06:48:50.480Z,100975.54
2019-03-12T06:51:35.988Z,100984.34
2019-03-12T06:54:20.176Z,100982.09
2019-03-12T06:57:08.564Z,100982.52
2019-03-12T07:00:12.031Z,100717.28
2019-03-12T07:02:51.524Z,100976.56
2019-03-12T07:05:38.717Z,100981.30
2019-03-12T07:08:22.608Z,100987.83
2019-03-12T07:11:04.008Z,100991.70
2019-03-12T07:13:41.590Z,100988.12
2019-03-12T07:16:19.303Z,100980.04
2019-03-12T07:19:06.025Z,100983.75
2019-03-12T07:21:54.270Z,100980.21
2019-03-12T07:24:38.471Z,100987.36
2019-03-12T07:27:29.820Z,100983.84
2019-03-12T07:30:27.026Z,100997.22
2019-03-12T07:33:15.286Z,101003.92
2019-03-12T07:36:15.731Z,101006.52
2019-03-12T07:39:10.106Z,101005.55
2019-03-12T07:42:01.961Z,101007.70
2019-03-12T07:44:59.351Z,101000.04
2019-03-12T07:47:46.141Z,101003.96
2019-03-12T07:50:32.899Z,100997.03
2019-03-12T07:53:20.064Z,100999.56
2019-03-12T07:56:00.099Z,100987.81
2019-03-12T07:58:48.491Z,100985.83
2019-03-12T08:01:37.507Z,100982.34
2019-03-12T08:04:20.189Z,100981.55
2019-03-12T08:07:13.098Z,100994.03
2019-03-12T08:10:10.618Z,100990.13
2019-03-12T08:12:54.496Z,100983.20
2019-03-12T08:15:42.641Z,100983.45
2019-03-12T08:18:25.929Z,100977.38
2019-03-12T08:21:26.128Z,100982.95
2019-03-12T08:24:23.447Z,100984.20
2019-03-12T08:27:11.672Z,100980.16
2019-03-12T08:29:59.878Z,100979.14
2019-03-12T08:32:51.181Z,100968.18
2019-03-12T08:35:42.375Z,100954.46
2019-03-12T08:38:33.554Z,100951.45
2019-03-12T08:41:09.329Z,100958.19
2019-03-12T08:43:51.164Z,100962.42
2019-03-12T08:46:43.532Z,100964.20
2019-03-12T08:49:36.757Z,100958.98
2019-03-12T08:52:34.335Z,100960.30
2019-03-12T08:55:34.881Z,100961.10
2019-03-12T08:58:29.429Z,100959.57
2019-03-12T09:01:16.411Z,100951.58
2019-03-12T09:04:13.074Z,100947.37
2019-03-12T09:07:05.374Z,100949.86
2019-03-12T09:09:52.470Z,100947.72
2019-03-12T09:12:28.190Z,100943.30
2019-03-12T09:15:28.804Z,100941.92
2019-03-12T09:18:16.956Z,100942.82
2019-03-12T09:20:55.874Z,100934.64
2019-03-12T09:23:47.299Z,100936.42
2019-03-12T09:26:22.439Z,100931.20
2019-03-12T09:29:09.711Z,100931.20
2019-03-12T09:32:00.710Z,100930.48
2019-03-12T09:34:51.501Z,100935.96
2019-03-12T09:37:45.594Z,100935.96
2019-03-12T09:40:23.268Z,100929.08
2019-03-12T09:43:06.134Z,100925.17
2019-03-12T09:45:54.552Z,100922.85
2019-03-12T09:48:45.719Z,100924.55
2019-03-12T09:51:28.566Z,100919.20
2019-03-12T09:54:28.949Z,100921.14
2019-03-12T09:57:08.546Z,100928.37
2019-03-12T10:00:15.292Z,100935.31
2019-03-12T10:02:50.819Z,100934.61
2019-03-12T10:05:32.473Z,100931.84
2019-03-12T10:08:19.526Z,100926.91
2019-03-12T10:11:07.705Z,100933.09
2019-03-12T10:13:58.851Z,100938.58
2019-03-12T10:16:47.023Z,100943.33
2019-03-12T10:19:34.100Z,100938.47
2019-03-12T10:22:28.353Z,100936.33
2019-03-12T10:25:15.505Z,100947.36
2019-03-12T10:28:00.711Z,100952.22
2019-03-12T10:30:47.772Z,100943.93
2019-03-12T10:33:34.627Z,100947.70
2019-03-12T10:36:13.791Z,100945.87
2019-03-12T10:39:31.328Z,100948.93
2019-03-12T10:42:05.876Z,100957.77
2019-03-12T10:44:51.916Z,100963.23
2019-03-12T10:47:22.704Z,100952.95
2019-03-12T10:49:52.008Z,100952.45
2019-03-12T10:52:21.967Z,100947.98
2019-03-12T10:54:51.155Z,100951.08
2019-03-12T10:57:21.719Z,100952.60
2019-03-12T10:59:51.213Z,100952.60
2019-03-12T11:02:20.427Z,100953.96
2019-03-12T11:04:49.940Z,100951.77
2019-03-12T11:07:19.366Z,100944.84
2019-03-12T11:09:48.564Z,100949.55
2019-03-12T11:12:17.749Z,100949.57
2019-03-12T11:14:47.106Z,100952.56
2019-03-12T11:17:16.513Z,100958.84
2019-03-12T11:19:45.711Z,100963.88
2019-03-12T11:22:14.954Z,100963.36
2019-03-12T11:24:44.159Z,100967.36
2019-03-12T11:27:13.764Z,100961.45
2019-03-12T11:29:43.133Z,100959.30
2019-03-12T11:32:12.711Z,100973.27
2019-03-12T11:34:41.920Z,100966.08
2019-03-12T11:37:11.139Z,100844.98
2019-03-12T11:39:40.427Z,100954.05
2019-03-12T11:42:09.652Z,100948.22
2019-03-12T11:44:38.927Z,100939.35
2019-03-12T11:47:08.133Z,100951.05
2019-03-12T11:49:37.341Z,100953.56
2019-03-12T11:52:06.644Z,100939.77
2019-03-12T11:54:35.991Z,100937.38
2019-03-12T11:57:05.332Z,100924.20
2019-03-12T11:59:35.982Z,100915.29
2019-03-12T12:02:06.193Z,100982.15
2019-03-12T12:04:35.381Z,100915.41
2019-03-12T12:07:05.218Z,100914.52
2019-03-12T12:09:34.510Z,100937.84
2019-03-12T12:12:03.805Z,100941.16
2019-03-12T12:14:33.053Z,100950.32
2019-03-12T12:17:02.247Z,100958.25
2019-03-12T12:19:31.469Z,100947.37
2019-03-12T12:22:00.740Z,100946.98
2019-03-12T12:24:29.922Z,100949.75
2019-03-12T12:26:59.190Z,100947.30
2019-03-12T12:29:28.537Z,100936.91
2019-03-12T12:31:57.752Z,100936.69
2019-03-12T12:34:26.987Z,100928.85
2019-03-12T12:36:56.252Z,100930.16
2019-03-12T12:39:25.636Z,100924.81
2019-03-12T12:41:54.875Z,100916.77
2019-03-12T12:44:24.165Z,100915.70
2019-03-12T12:46:53.543Z,100914.09
2019-03-12T12:49:22.920Z,100915.79
2019-03-12T12:51:52.242Z,100914.42
2019-03-12T12:54:21.477Z,100903.70
2019-03-12T12:56:50.656Z,100903.72
2019-03-12T12:59:20.028Z,100898.44
2019-03-12T13:01:49.306Z,100880.63
2019-03-12T13:04:18.707Z,100888.80
2019-03-12T13:06:48.335Z,100902.67
2019-03-12T13:09:17.952Z,100884.05
2019-03-12T13:11:47.232Z,100886.02
2019-03-12T13:14:16.502Z,100879.68
2019-03-12T13:16:45.710Z,100879.68
2019-03-12T13:19:14.924Z,100877.61
2019-03-12T13:21:44.199Z,100871.39
2019-03-12T13:24:13.403Z,100868.58
2019-03-12T13:26:42.609Z,100863.75
2019-03-12T13:29:12.048Z,100864.98
2019-03-12T13:31:41.346Z,100865.14
2019-03-12T13:34:10.571Z,100881.08
2019-03-12T13:36:39.976Z,100881.08
2019-03-12T13:39:09.825Z,100862.66
2019-03-12T13:41:39.113Z,100847.16
2019-03-12T13:44:08.462Z,100847.16
2019-03-12T13:46:37.767Z,100844.41
2019-03-12T13:49:07.141Z,100844.84
2019-03-12T13:51:36.475Z,100840.14
2019-03-12T13:54:05.652Z,100844.09
2019-03-12T13:56:34.871Z,100845.77
2019-03-12T13:59:04.288Z,100840.67
2019-03-12T14:01:33.549Z,100850.16
2019-03-12T14:04:10.404Z,100847.92
2019-03-12T14:06:33.894Z,100849.58
2019-03-12T14:09:04.103Z,100849.58
2019-03-12T14:11:33.653Z,100729.33
2019-03-12T14:14:03.062Z,100850.70
2019-03-12T14:16:35.062Z,100835.22
2019-03-12T14:19:04.477Z,100828.62
2019-03-12T14:21:39.618Z,100828.69
2019-03-12T14:24:09.227Z,100835.20
2019-03-12T14:26:38.622Z,100827.52
2019-03-12T14:29:07.842Z,100826.05
2019-03-12T14:31:37.073Z,100825.06
2019-03-12T14:34:06.413Z,100820.08
2019-03-12T14:36:35.774Z,100810.18
2019-03-12T14:39:07.056Z,100796.91
2019-03-12T14:41:36.401Z,100790.80
2019-03-12T14:44:05.846Z,100789.88
2019-03-12T14:46:35.160Z,100791.09
2019-03-12T14:49:06.639Z,100793.16
2019-03-12T14:52:20.386Z,100791.86
2019-03-12T14:54:49.585Z,100787.59
2019-03-12T14:57:18.961Z,100783.41
2019-03-12T14:59:48.323Z,100777.82
2019-03-12T15:02:17.728Z,100777.82
2019-03-12T15:04:47.556Z,100791.56
2019-03-12T15:07:16.822Z,100792.02
2019-03-12T15:09:46.059Z,100785.29
2019-03-12T15:12:15.397Z,100786.52
2019-03-12T15:14:44.776Z,100791.00
2019-03-12T15:17:14.106Z,100793.52
2019-03-12T15:19:43.933Z,100792.58
2019-03-12T15:22:13.223Z,100791.62
2019-03-12T15:24:42.498Z,100779.11
2019-03-12T15:27:11.764Z,100778.64
2019-03-12T15:29:42.985Z,100777.70
2019-03-12T15:32:11.927Z,100767.02
2019-03-12T15:34:41.127Z,100766.66
2019-03-12T15:37:10.363Z,100754.00
2019-03-12T15:39:39.559Z,100758.22
2019-03-12T15:42:08.779Z,100753.33
2019-03-12T15:44:38.138Z,100755.50
2019-03-12T15:47:08.858Z,100751.34
2019-03-12T15:49:42.951Z,100755.97
2019-03-12T15:52:09.084Z,100740.71
2019-03-12T15:54:38.279Z,100740.48
2019-03-12T15:57:07.532Z,100736.61
2019-03-12T15:59:36.829Z,100731.33
2019-03-12T16:02:06.000Z,100728.81
2019-03-12T16:04:35.264Z,100743.72
2019-03-12T16:07:04.629Z,100739.52
2019-03-12T16:09:33.798Z,100750.89
2019-03-12T16:12:02.990Z,100737.67
2019-03-12T16:14:32.547Z,100728.31
2019-03-12T16:17:01.904Z,100721.11
2019-03-12T16:19:31.098Z,100722.42
2019-03-12T16:22:00.357Z,100726.02
2019-03-12T16:24:29.660Z,100726.03
2019-03-12T16:26:58.867Z,100720.38
2019-03-12T16:29:28.124Z,100717.20
2019-03-12T16:31:57.323Z,100718.19
2019-03-12T16:34:26.890Z,100723.14
2019-03-12T16:36:56.170Z,100726.50
2019-03-12T16:39:25.487Z,100717.37
2019-03-12T16:41:54.709Z,100721.03
2019-03-12T16:44:23.957Z,100722.22
2019-03-12T16:46:53.391Z,100719.14
2019-03-12T16:49:22.732Z,100713.97
2019-03-12T16:51:52.096Z,100619.11
2019-03-12T16:54:21.329Z,100714.06
2019-03-12T16:56:50.587Z,100705.31
2019-03-12T16:59:20.027Z,100701.66
2019-03-12T17:01:49.210Z,100698.74
2019-03-12T17:04:18.424Z,100700.01
2019-03-12T17:06:47.667Z,100699.88
2019-03-12T17:09:17.159Z,100698.67
2019-03-12T17:11:46.358Z,100698.25
2019-03-12T17:14:15.590Z,100686.45
2019-03-12T17:16:45.902Z,100692.28
2019-03-12T17:19:15.219Z,100686.53
2019-03-12T17:21:44.539Z,100690.17
2019-03-12T17:24:13.757Z,100690.75
2019-03-12T17:26:42.956Z,100688.25
2019-03-12T17:29:12.193Z,100685.36
2019-03-12T17:31:41.412Z,100681.89
2019-03-12T17:34:10.686Z,100681.78
2019-03-12T17:36:39.927Z,100676.59
2019-03-12T17:39:09.271Z,100680.03
2019-03-12T17:41:38.477Z,100678.70
2019-03-12T17:44:07.713Z,100676.70
2019-03-12T17:46:36.917Z,100669.27
2019-03-12T17:49:06.172Z,100664.63
2019-03-12T17:51:35.456Z,100657.58
2019-03-12T17:54:05.078Z,100664.80
2019-03-12T17:56:34.299Z,100661.72
2019-03-12T17:59:03.603Z,100663.19
2019-03-12T18:01:32.831Z,100656.93
2019-03-12T18:04:02.048Z,100652.96
2019-03-12T18:06:34.789Z,100637.20
2019-03-12T18:09:02.357Z,100638.27
2019-03-12T18:11:31.540Z,100640.52
2019-03-12T18:14:00.788Z,100634.66
2019-03-12T18:16:40.538Z,100646.02
2019-03-12T18:19:01.117Z,100639.64
2019-03-12T18:21:30.573Z,100636.96
2019-03-12T18:23:59.842Z,100631.31
2019-03-12T18:26:29.134Z,100629.03
2019-03-12T18:28:59.511Z,100631.66
2019-03-12T18:31:28.692Z,100634.02
2019-03-12T18:33:58.219Z,100628.66
2019-03-12T18:36:27.489Z,100633.58
2019-03-12T18:38:56.701Z,100628.32
2019-03-12T18:41:28.246Z,100627.20
2019-03-12T18:43:57.563Z,100627.81
2019-03-12T18:46:26.755Z,100629.11
2019-03-12T18:48:55.949Z,100619.72
2019-03-12T18:51:25.204Z,100619.72
2019-03-12T18:53:54.396Z,100623.40
2019-03-12T18:56:23.596Z,100626.58
2019-03-12T18:58:52.919Z,100624.91
2019-03-12T19:01:24.183Z,100627.87
2019-03-12T19:03:53.791Z,100623.01
2019-03-12T19:06:23.063Z,100622.39
2019-03-12T19:08:52.443Z,100615.08
2019-03-12T19:11:21.818Z,100624.36
2019-03-12T19:13:51.055Z,100613.17
2019-03-12T19:16:20.323Z,100612.00
2019-03-12T19:18:50.360Z,100601.89
2019-03-12T19:21:19.820Z,100593.78
2019-03-12T19:23:49.466Z,100587.36
2019-03-12T19:26:18.765Z,100587.86
2019-03-12T19:28:48.365Z,100573.04
2019-03-12T19:31:36.592Z,100578.01
2019-03-12T19:34:10.310Z,100570.52
2019-03-12T19:36:39.504Z,100574.98
2019-03-12T19:39:11.457Z,100578.16
2019-03-12T19:41:40.950Z,100574.91
2019-03-12T19:44:10.135Z,100570.09
2019-03-12T19:46:39.413Z,100563.98
2019-03-12T19:49:08.842Z,100568.16
2019-03-12T19:51:38.117Z,100563.80
2019-03-12T19:54:07.419Z,100564.09
2019-03-12T19:56:36.657Z,100562.02
2019-03-12T19:59:05.853Z,100558.77
2019-03-12T20:01:36.244Z,100555.30
2019-03-12T20:04:05.488Z,100554.30
2019-03-12T20:06:34.844Z,100546.88
2019-03-12T20:09:06.022Z,100554.30
2019-03-12T20:12:03.411Z,100554.48
2019-03-12T20:15:31.807Z,100553.80
2019-03-12T20:18:57.368Z,100553.30
2019-03-12T20:22:01.740Z,100545.69
2019-03-12T20:25:07.155Z,100535.61
2019-03-12T20:28:27.926Z,100532.86
2019-03-12T20:31:53.008Z,100521.97
2019-03-12T20:35:00.040Z,100513.75
2019-03-12T20:38:04.895Z,100514.83
2019-03-12T20:41:20.355Z,100504.43
2019-03-12T20:44:30.056Z,100496.82
2019-03-12T20:47:33.575Z,100497.11
2019-03-12T20:50:48.358Z,100485.72
2019-03-12T20:54:11.515Z,100489.47
2019-03-12T20:57:30.516Z,100358.59
2019-03-12T21:00:36.921Z,100474.30
2019-03-12T21:04:02.604Z,100474.08
2019-03-12T21:07:30.227Z,100473.05
2019-03-12T21:10:35.292Z,100466.09
2019-03-12T21:13:31.597Z,100468.23
2019-03-12T21:16:59.810Z,100458.63
2019-03-12T21:20:34.234Z,100458.81
2019-03-12T21:23:24.145Z,100449.49
2019-03-12T21:26:40.556Z,100440.96
2019-03-12T21:29:44.333Z,100437.78
2019-03-12T21:32:14.150Z,100434.71
2019-03-12T21:34:43.582Z,100434.39
2019-03-12T21:37:13.047Z,100428.64
2019-03-12T21:39:54.384Z,100419.33
2019-03-12T21:42:13.230Z,100416.16
2019-03-12T21:44:42.600Z,100415.55
2019-03-12T21:47:11.994Z,100400.41
2019-03-12T21:49:41.204Z,100395.95
2019-03-12T21:52:10.525Z,100399.20
2019-03-12T21:54:40.348Z,100395.52
2019-03-12T21:57:09.542Z,100396.20
2019-03-12T21:59:38.767Z,100390.06
2019-03-12T22:02:08.053Z,100377.50
2019-03-12T22:04:37.243Z,100369.58
2019-03-12T22:07:06.602Z,100375.50
2019-03-12T22:09:36.057Z,100367.30
2019-03-12T22:12:05.331Z,100367.86
2019-03-12T22:14:36.933Z,100358.09
2019-03-12T22:17:06.405Z,100351.17
2019-03-12T22:19:35.681Z,100347.22
2019-03-12T22:22:15.462Z,100342.86
2019-03-12T22:24:45.268Z,100337.23
2019-03-12T22:27:14.646Z,100325.28
2019-03-12T22:29:43.973Z,100325.39
2019-03-12T22:32:13.236Z,100313.94
2019-03-12T22:34:42.501Z,100322.25
2019-03-12T22:37:11.841Z,100313.19
2019-03-12T22:39:41.140Z,100300.17
2019-03-12T22:42:10.442Z,100292.29
2019-03-12T22:44:39.803Z,100286.08
2019-03-12T22:47:09.015Z,100281.25
2019-03-12T22:49:38.615Z,100280.19
2019-03-12T22:52:08.054Z,100284.35
2019-03-12T22:54:37.543Z,100280.02
2019-03-12T22:57:06.762Z,100278.66
2019-03-12T22:59:36.427Z,100273.72
2019-03-12T23:02:05.628Z,100271.86
2019-03-12T23:04:34.812Z,100261.79
2019-03-12T23:07:04.054Z,100259.81
2019-03-12T23:09:33.243Z,100259.03
2019-03-12T23:12:02.431Z,100248.95
2019-03-12T23:14:31.674Z,100246.69
2019-03-12T23:17:00.876Z,100237.90
2019-03-12T23:19:30.071Z,100238.20
2019-03-12T23:21:59.403Z,100231.09
2019-03-12T23:24:28.591Z,100221.98
2019-03-12T23:26:58.052Z,100218.53
2019-03-12T23:29:27.400Z,100223.57
2019-03-12T23:31:56.628Z,100211.80
2019-03-12T23:34:25.815Z,100211.41
2019-03-12T23:36:55.065Z,100192.03
2019-03-12T23:39:24.573Z,100186.39
2019-03-12T23:41:53.891Z,100175.91
2019-03-12T23:44:23.145Z,100187.38
2019-03-12T23:46:52.351Z,100184.41
2019-03-12T23:49:21.648Z,100171.37
2019-03-12T23:51:50.896Z,100160.98
2019-03-12T23:54:20.085Z,100158.22
2019-03-12T23:56:49.718Z,100161.68
2019-03-12T23:59:18.990Z,100161.28
